Time;durP1;ratioP1;P1;durP2;ratioP2;P2;SDS_P1;SDS_P2;PMS_P1;PMS_P2;Temp;Humidity;BMP_temperature;BMP_pressure;BME280_temperature;BME280_humidity;BME280_pressure;Samples;Min_cycle;Max_cycle;Signal;HPM_P1;HPM_P2
2021/06/22 00:01:42;;;;;;;20.70;9.20;;;;;;;20.16;54.36;100810.03;5056473;28;20484;-47
2021/06/22 00:04:10;;;;;;;29.37;9.50;;;;;;;19.92;54.95;100803.81;5073909;28;20487;-48
2021/06/22 00:06:41;;;;;;;19.77;9.57;;;;;;;19.86;54.75;100804.69;5064110;28;20462;-46
2021/06/22 00:09:09;;;;;;;21.10;8.80;;;;;;;19.99;53.97;100805.63;5074132;28;20485;-47
2021/06/22 00:11:39;;;;;;;15.50;8.63;;;;;;;19.92;54.97;100809.94;5064793;28;20453;-44
2021/06/22 00:14:07;;;;;;;15.90;7.53;;;;;;;19.99;55.16;100810.84;5077348;28;20482;-49
2021/06/22 00:16:39;;;;;;;32.10;9.60;;;;;;;19.79;55.18;100793.31;5072235;28;20462;-45
2021/06/22 00:19:07;;;;;;;18.27;8.80;;;;;;;19.60;56.04;100789.75;5079122;28;20483;-46
2021/06/22 00:21:43;;;;;;;25.80;8.70;;;;;;;19.81;55.80;100801.16;5071878;28;20465;-49
2021/06/22 00:24:10;;;;;;;15.47;7.87;;;;;;;19.66;55.27;100799.34;5078970;28;20571;-48
2021/06/22 00:26:39;;;;;;;27.00;8.37;;;;;;;19.83;55.34;100807.28;5077624;28;20462;-45
2021/06/22 00:29:07;;;;;;;16.40;7.27;;;;;;;19.81;54.86;100822.09;5078807;28;20485;-44
2021/06/22 00:31:41;;;;;;;20.27;8.70;;;;;;;19.74;55.59;100836.03;5071767;28;20457;-44
2021/06/22 00:34:09;;;;;;;17.00;8.20;;;;;;;19.98;53.64;100845.78;5078907;28;20503;-45
2021/06/22 00:36:37;;;;;;;18.70;9.03;;;;;;;19.78;55.59;100843.03;5067589;28;20466;-44
2021/06/22 00:39:06;;;;;;;27.27;8.77;;;;;;;20.18;53.77;100842.34;5077592;28;20481;-47
2021/06/22 00:41:41;;;;;;;17.80;7.53;;;;;;;20.09;53.48;100849.31;5073235;28;20460;-47
2021/06/22 00:44:11;;;;;;;30.37;13.47;;;;;;;20.27;53.44;100837.16;5078278;28;20510;-45
2021/06/22 00:46:39;;;;;;;19.77;8.90;;;;;;;20.02;53.78;100838.78;5066431;28;20890;-45
2021/06/22 00:49:07;;;;;;;18.10;7.93;;;;;;;20.19;53.21;100847.59;5077333;28;20503;-44
2021/06/22 00:51:39;;;;;;;18.67;8.10;;;;;;;20.29;53.03;100861.59;5070070;28;20460;-45
2021/06/22 00:54:09;;;;;;;17.90;8.23;;;;;;;20.41;51.75;100875.59;5078640;28;20489;-45
2021/06/22 00:56:40;;;;;;;26.53;8.57;;;;;;;20.34;52.53;100880.81;5059800;28;20467;-49
2021/06/22 00:59:07;;;;;;;23.13;8.93;;;;;;;20.29;53.22;100872.06;5077311;28;20789;-48
2021/06/22 01:01:40;;;;;;;20.17;9.03;;;;;;;20.41;53.68;100863.38;5068290;28;20487;-45
2021/06/22 01:04:07;;;;;;;19.57;8.70;;;;;;;20.59;53.11;100859.03;5078528;28;20488;-47
2021/06/22 01:06:40;;;;;;;20.23;10.43;;;;;;;20.37;53.46;100859.00;5067259;28;20781;-46
2021/06/22 01:09:09;;;;;;;22.53;9.20;;;;;;;20.35;53.38;100864.22;5074689;28;21003;-48
2021/06/22 01:11:38;;;;;;;22.97;8.20;;;;;;;20.33;53.54;100863.38;5062679;28;20461;-44
2021/06/22 01:14:05;;;;;;;32.43;15.33;;;;;;;20.04;54.50;100869.34;5077292;28;20481;-44
2021/06/22 01:16:41;;;;;;;22.77;8.30;;;;;;;20.13;54.16;100863.28;5077326;28;20459;-51
2021/06/22 01:19:09;;;;;;;23.47;8.70;;;;;;;20.05;54.69;100863.25;5077559;28;20465;-44
2021/06/22 01:21:42;;;;;;;23.50;8.77;;;;;;;19.84;55.03;100858.75;5067226;28;20460;-45
2021/06/22 01:24:11;;;;;;;20.83;8.90;;;;;;;20.17;54.35;100856.31;5076679;28;20785;-45
2021/06/22 01:26:40;;;;;;;21.93;9.80;;;;;;;19.93;55.24;100860.53;5076707;28;20467;-47
2021/06/22 01:29:10;;;;;;;21.67;9.93;;;;;;;20.13;54.29;100859.78;5077556;28;20495;-45
2021/06/22 01:31:41;;;;;;;30.07;9.50;;;;;;;20.27;53.50;100863.34;5065154;28;20448;-47
2021/06/22 01:34:09;;;;;;;22.90;9.40;;;;;;;20.07;54.15;100863.25;5076749;28;20913;-48
2021/06/22 01:36:39;;;;;;;28.80;8.93;;;;;;;20.42;53.04;100861.63;5067199;28;20484;-47
2021/06/22 01:39:13;;;;;;;27.73;9.20;;;;;;;20.14;54.02;100854.56;5077321;28;20482;-44
2021/06/22 01:41:40;;;;;;;23.23;10.30;;;;;;;19.80;55.44;100855.25;5076504;28;20860;-47
2021/06/22 01:44:08;;;;;;;31.80;14.80;;;;;;;19.69;55.38;100851.72;5077534;28;20492;-46
2021/06/22 01:46:42;;;;;;;27.33;10.77;;;;;;;19.64;56.42;100848.19;5065998;28;20760;-47
2021/06/22 01:49:10;;;;;;;33.40;16.87;;;;;;;19.97;55.65;100846.66;5076319;28;20493;-45
2021/06/22 01:51:40;;;;;;;29.70;10.80;;;;;;;19.93;55.70;100847.44;5067045;28;20463;-47
2021/06/22 01:54:09;;;;;;;23.20;9.30;;;;;;;19.74;55.73;100841.28;5076855;28;20489;-44
2021/06/22 01:56:48;;;;;;;32.37;9.50;;;;;;;19.78;54.65;100843.91;5072872;28;20464;-49
2021/06/22 01:59:15;;;;;;;23.70;9.50;;;;;;;19.85;55.24;100844.81;5076894;28;20460;-45
2021/06/22 02:01:44;;;;;;;22.87;10.00;;;;;;;19.95;55.49;100848.34;5066563;28;20451;-46
2021/06/22 02:04:12;;;;;;;21.23;8.93;;;;;;;20.24;53.29;100853.72;5077305;28;20851;-45
2021/06/22 02:06:40;;;;;;;19.83;9.40;;;;;;;20.27;53.52;100860.72;5070923;28;20468;-45
2021/06/22 02:09:09;;;;;;;24.50;10.07;;;;;;;20.39;53.14;100872.13;5076812;28;21031;-45
2021/06/22 02:11:38;;;;;;;21.53;9.10;;;;;;;20.46;52.43;100879.13;5066955;28;20460;-45
2021/06/22 02:14:05;;;;;;;19.60;8.37;;;;;;;20.26;52.81;100893.03;5076016;28;20484;-45
2021/06/22 02:16:40;;;;;;;21.10;9.37;;;;;;;19.68;55.23;100904.91;5074834;28;20457;-52
2021/06/22 02:19:07;;;;;;;19.23;8.77;;;;;;;20.00;54.12;100906.88;5076896;28;20481;-46
2021/06/22 02:21:41;;;;;;;17.03;9.20;;;;;;;20.03;53.58;100911.25;5066974;28;20460;-48
2021/06/22 02:24:10;;;;;;;55.70;28.03;;;;;;;20.04;54.23;100919.09;5076766;28;20493;-44
2021/06/22 02:26:38;;;;;;;32.73;13.40;;;;;;;20.24;53.90;100921.84;5065308;28;20454;-47
2021/06/22 02:29:05;;;;;;;22.37;8.53;;;;;;;20.20;53.32;100925.28;5075431;28;20491;-46
2021/06/22 02:31:37;;;;;;;35.97;8.87;;;;;;;20.48;53.11;100924.53;5075885;28;20471;-48
2021/06/22 02:34:04;;;;;;;23.80;8.47;;;;;;;20.41;53.37;100912.28;5076600;28;20809;-46
2021/06/22 02:36:32;;;;;;;28.77;14.73;;;;;;;20.31;53.37;100917.47;5075650;28;20555;-44
2021/06/22 02:39:00;;;;;;;30.43;16.97;;;;;;;20.06;53.88;100906.88;5076071;28;20800;-47
2021/06/22 02:41:29;;;;;;;24.33;12.43;;;;;;;20.05;55.11;100915.63;5076505;28;20799;-46
2021/06/22 02:43:57;;;;;;;25.33;9.93;;;;;;;20.42;54.25;100914.91;5064879;28;20595;-47
2021/06/22 02:46:25;;;;;;;24.80;10.27;;;;;;;20.35;53.41;100903.53;5075943;28;20461;-46
2021/06/22 02:48:52;;;;;;;22.00;10.00;;;;;;;20.52;53.29;100910.56;5074982;28;20489;-44
2021/06/22 02:51:20;;;;;;;26.13;9.83;;;;;;;20.66;52.56;100907.97;5076434;28;20464;-47
2021/06/22 02:53:48;;;;;;;58.20;31.10;;;;;;;20.22;54.63;100905.25;5062995;28;20490;-46
2021/06/22 02:56:15;;;;;;;35.00;20.83;;;;;;;20.38;53.97;100905.28;5076164;28;20458;-47
2021/06/22 02:58:44;;;;;;;27.30;12.30;;;;;;;20.10;55.01;100895.56;5074903;28;20480;-44
2021/06/22 03:01:12;;;;;;;24.80;11.80;;;;;;;20.05;54.50;100888.56;5076263;28;20461;-45
2021/06/22 03:03:39;;;;;;;21.80;8.67;;;;;;;20.29;53.68;100890.41;5075032;28;20767;-45
2021/06/22 03:06:07;;;;;;;22.60;9.90;;;;;;;20.06;54.37;100891.19;5075821;28;20461;-44
2021/06/22 03:08:34;;;;;;;26.50;10.10;;;;;;;20.18;53.81;100897.34;5064200;28;20489;-45
2021/06/22 03:11:02;;;;;;;20.07;8.60;;;;;;;20.21;53.18;100889.50;5075899;28;20462;-44
2021/06/22 03:13:30;;;;;;;21.80;9.40;;;;;;;20.40;52.61;100892.19;5074677;28;20493;-43
2021/06/22 03:15:58;;;;;;;16.40;8.70;;;;;;;20.39;53.36;100891.31;5075696;28;20465;-45
2021/06/22 03:18:26;;;;;;;19.23;9.00;;;;;;;20.39;53.16;100893.06;5074408;28;20548;-47
2021/06/22 03:20:54;;;;;;;20.93;8.60;;;;;;;20.17;54.42;100888.63;5075801;28;20557;-46
2021/06/22 03:23:21;;;;;;;39.27;12.90;;;;;;;20.25;54.21;100896.50;5063934;28;20486;-45
2021/06/22 03:25:49;;;;;;;22.83;9.40;;;;;;;20.22;54.36;100901.75;5075237;28;20468;-44
2021/06/22 03:28:17;;;;;;;23.83;8.93;;;;;;;20.10;53.36;100908.66;5063592;28;20490;-45
2021/06/22 03:30:46;;;;;;;28.27;9.13;;;;;;;20.29;52.71;100919.22;5075478;28;20477;-45
2021/06/22 03:33:17;;;;;;;27.60;8.20;;;;;;;20.19;53.55;100928.78;5074368;28;20489;-44
2021/06/22 03:35:45;;;;;;;23.27;8.27;;;;;;;20.30;52.84;100930.59;5075158;28;20470;-47
2021/06/22 03:38:12;;;;;;;16.87;7.60;;;;;;;20.21;53.02;100937.50;5074356;28;20489;-47
2021/06/22 03:40:40;;;;;;;16.97;7.30;;;;;;;20.36;52.20;100947.19;5075671;28;20480;-44
2021/06/22 03:43:07;;;;;;;19.03;6.90;;;;;;;20.42;52.33;100948.09;5063797;28;20493;-44
2021/06/22 03:45:35;;;;;;;17.70;8.43;;;;;;;20.36;52.57;100952.44;5074952;28;20779;-45
2021/06/22 03:48:02;;;;;;;24.43;8.60;;;;;;;20.21;52.73;100966.34;5058129;28;20493;-48
2021/06/22 03:50:32;;;;;;;22.80;8.60;;;;;;;19.79;54.73;100973.06;5075245;28;20490;-44
2021/06/22 03:53:00;;;;;;;19.57;9.80;;;;;;;19.43;55.69;100985.84;5074225;28;20485;-45
2021/06/22 03:55:28;;;;;;;19.23;8.10;;;;;;;19.51;55.04;100994.66;5075235;28;20782;-44
2021/06/22 03:57:59;;;;;;;14.90;7.57;;;;;;;19.45;55.63;101002.44;5063529;28;20489;-46
2021/06/22 04:00:27;;;;;;;23.63;8.57;;;;;;;19.71;55.04;100999.16;5074440;28;20477;-44
2021/06/22 04:02:56;;;;;;;19.70;7.80;;;;;;;20.07;53.77;100992.47;5060783;28;20496;-46
2021/06/22 04:05:24;;;;;;;19.07;8.47;;;;;;;20.20;53.95;100974.19;5074602;28;20461;-48
2021/06/22 04:07:54;;;;;;;30.07;8.50;;;;;;;20.20;53.62;100961.97;5071568;28;20568;-47
2021/06/22 04:10:21;;;;;;;28.13;9.77;;;;;;;20.22;53.98;100949.78;5075109;28;20486;-48
2021/06/22 04:12:49;;;;;;;21.10;8.10;;;;;;;20.10;53.92;100944.47;5062711;28;20916;-45
2021/06/22 04:15:17;;;;;;;22.93;8.33;;;;;;;20.40;53.10;100936.75;5074765;28;20955;-49
2021/06/22 04:17:46;;;;;;;23.03;11.57;;;;;;;20.20;54.22;100934.91;5073726;28;20582;-46
2021/06/22 04:20:14;;;;;;;19.37;8.83;;;;;;;20.30;53.37;100930.59;5075033;28;20483;-46
2021/06/22 04:22:41;;;;;;;15.20;8.03;;;;;;;20.42;53.04;100935.00;5058563;28;20497;-44
2021/06/22 04:25:12;;;;;;;20.23;7.27;;;;;;;20.53;51.93;100938.53;5074791;28;20547;-45
2021/06/22 04:27:39;;;;;;;14.70;8.10;;;;;;;20.30;52.55;100952.41;5071567;28;20474;-44
2021/06/22 04:30:08;;;;;;;18.60;8.30;;;;;;;20.36;52.79;100956.81;5074942;28;20488;-46
2021/06/22 04:32:36;;;;;;;19.50;8.30;;;;;;;20.45;52.34;100956.84;5062962;28;20485;-44
2021/06/22 04:35:05;;;;;;;18.00;7.90;;;;;;;20.03;54.31;100959.25;5074513;28;20473;-45
2021/06/22 04:37:33;;;;;;;21.73;7.80;;;;;;;19.92;54.96;100945.19;5072112;28;20567;-48
2021/06/22 04:40:00;;;;;;;19.27;8.67;;;;;;;20.36;53.70;100947.19;5074849;28;20478;-49
2021/06/22 04:42:30;;;;;;;15.90;7.93;;;;;;;20.36;52.68;100952.44;5073674;28;20481;-44
2021/06/22 04:44:57;;;;;;;16.03;7.53;;;;;;;20.61;52.07;100955.16;5074710;28;20461;-45
2021/06/22 04:47:25;;;;;;;25.57;11.73;;;;;;;20.57;52.91;100940.31;5071995;28;20565;-45
2021/06/22 04:49:52;;;;;;;29.87;7.97;;;;;;;20.21;54.29;100936.66;5074632;28;20543;-44
2021/06/22 04:52:20;;;;;;;21.87;8.13;;;;;;;20.34;53.51;100938.47;5073491;28;20481;-45
2021/06/22 04:54:48;;;;;;;18.53;8.27;;;;;;;20.16;53.38;100941.00;5074718;28;20474;-44
2021/06/22 04:57:18;;;;;;;19.60;7.73;;;;;;;19.89;53.61;100942.56;5073229;28;20576;-45
2021/06/22 04:59:48;;;;;;;22.10;8.80;;;;;;;20.15;53.54;100954.97;5077126;28;20476;-47
2021/06/22 05:02:20;;;;;;;17.40;7.70;;;;;;;20.14;53.27;100958.47;5077218;28;20489;-46
2021/06/22 05:04:48;;;;;;;21.03;7.20;;;;;;;20.23;53.05;100948.00;5078450;28;20461;-45
2021/06/22 05:07:15;;;;;;;21.60;9.00;;;;;;;20.33;53.08;100952.44;5076428;28;20482;-45
2021/06/22 05:09:43;;;;;;;18.63;8.53;;;;;;;20.11;53.60;100956.69;5078252;28;20493;-46
2021/06/22 05:12:11;;;;;;;16.40;7.80;;;;;;;19.82;54.75;100952.13;5076884;28;20476;-44
2021/06/22 05:14:39;;;;;;;16.60;8.10;;;;;;;19.54;55.39;100950.19;5078377;28;20875;-46
2021/06/22 05:17:08;;;;;;;18.00;7.67;;;;;;;19.79;54.68;100950.34;5076572;28;20473;-47
2021/06/22 05:19:35;;;;;;;20.00;8.10;;;;;;;19.70;54.98;100945.94;5077867;28;20483;-46
2021/06/22 05:22:03;;;;;;;21.13;7.77;;;;;;;19.53;55.28;100944.97;5072786;28;20491;-44
2021/06/22 05:24:31;;;;;;;26.17;7.77;;;;;;;19.90;53.32;100957.41;5078260;28;20460;-44
2021/06/22 05:26:58;;;;;;;18.37;8.60;;;;;;;20.09;53.56;100964.53;5076480;28;20483;-47
2021/06/22 05:29:26;;;;;;;19.43;7.67;;;;;;;20.00;53.44;100974.94;5077951;28;20478;-45
2021/06/22 05:31:53;;;;;;;18.63;7.13;;;;;;;19.79;53.80;100983.53;5076597;28;20781;-45
2021/06/22 05:34:22;;;;;;;19.03;6.67;;;;;;;19.92;52.34;100992.31;5077877;28;20467;-44
2021/06/22 05:36:50;;;;;;;34.70;9.93;;;;;;;19.81;54.43;100997.50;5067040;28;20763;-45
2021/06/22 05:39:17;;;;;;;20.67;7.90;;;;;;;19.91;53.98;100996.69;5076921;28;20476;-45
2021/06/22 05:41:45;;;;;;;23.87;9.50;;;;;;;19.96;54.20;100986.28;5076358;28;20457;-46
2021/06/22 05:44:13;;;;;;;15.43;6.47;;;;;;;19.86;53.37;100987.94;5077632;28;20460;-44
2021/06/22 05:46:41;;;;;;;24.97;7.87;;;;;;;20.25;52.97;100993.41;5061038;28;20457;-48
2021/06/22 05:49:08;;;;;;;25.80;6.30;;;;;;;20.05;52.69;100993.31;5076501;28;20484;-44
2021/06/22 05:51:37;;;;;;;20.63;8.47;;;;;;;20.42;52.57;100996.13;5076388;28;20492;-44
2021/06/22 05:54:05;;;;;;;18.80;7.07;;;;;;;20.21;52.04;100994.28;5077284;28;20485;-46
2021/06/22 05:56:33;;;;;;;51.87;26.93;;;;;;;20.53;52.31;101001.41;5075835;28;20493;-47
2021/06/22 05:59:01;;;;;;;23.80;7.57;;;;;;;20.50;51.84;100991.81;5076779;28;20484;-48
2021/06/22 06:01:28;;;;;;;25.17;9.97;;;;;;;20.12;53.46;100996.84;5077176;28;20460;-44
2021/06/22 06:03:56;;;;;;;20.97;8.80;;;;;;;20.66;52.86;101002.31;5075860;28;20790;-45
2021/06/22 06:06:23;;;;;;;18.50;6.70;;;;;;;20.69;50.42;101006.72;5077174;28;20484;-44
2021/06/22 06:08:52;;;;;;;12.10;5.73;;;;;;;20.41;50.79;101011.84;5075935;28;20795;-46
2021/06/22 06:11:20;;;;;;;10.93;5.50;;;;;;;20.29;50.59;101008.28;5076005;28;20475;-45
2021/06/22 06:13:47;;;;;;;14.93;5.77;;;;;;;20.10;53.18;101013.41;5075545;28;20478;-43
2021/06/22 06:16:15;;;;;;;16.53;6.30;;;;;;;20.66;50.54;101006.72;5076999;28;20470;-45
2021/06/22 06:18:42;;;;;;;15.30;6.60;;;;;;;20.60;51.63;101016.28;5075747;28;20479;-47
2021/06/22 06:21:10;;;;;;;27.17;6.20;;;;;;;20.61;51.49;101017.19;5077181;28;20458;-44
2021/06/22 06:23:40;;;;;;;21.43;6.10;;;;;;;20.44;51.64;101017.09;5075430;28;20485;-45
2021/06/22 06:26:12;;;;;;;14.60;5.97;;;;;;;20.58;50.98;101025.03;5076533;28;20863;-46
2021/06/22 06:28:44;;;;;;;19.80;5.83;;;;;;;19.99;52.53;101024.69;5065350;28;20475;-45
2021/06/22 06:31:11;;;;;;;25.37;8.27;;;;;;;20.64;51.68;101017.19;5076677;28;21023;-45
2021/06/22 06:33:39;;;;;;;17.70;5.27;;;;;;;20.74;50.37;101026.84;5065560;28;20478;-44
2021/06/22 06:36:07;;;;;;;21.07;5.40;;;;;;;20.77;49.66;101025.97;5076268;28;20462;-46
2021/06/22 06:38:34;;;;;;;15.10;5.20;;;;;;;20.53;49.92;101022.38;5064889;28;20487;-46
2021/06/22 06:41:03;;;;;;;12.00;4.40;;;;;;;20.22;50.53;101030.97;5076096;28;20453;-47
2021/06/22 06:43:32;;;;;;;14.07;4.80;;;;;;;20.66;48.31;101019.81;5064755;28;20488;-44
2021/06/22 06:45:59;;;;;;;10.83;5.27;;;;;;;20.79;50.38;101019.00;5076150;28;20451;-46
2021/06/22 06:48:27;;;;;;;18.37;5.80;;;;;;;20.89;50.85;101026.06;5064191;28;20490;-47
2021/06/22 06:50:55;;;;;;;14.37;5.20;;;;;;;20.77;48.46;101024.22;5076083;28;20490;-45
2021/06/22 06:53:23;;;;;;;20.43;9.20;;;;;;;20.93;49.76;101039.16;5064430;28;21206;-46
2021/06/22 06:55:50;;;;;;;12.13;4.67;;;;;;;21.33;48.00;101046.25;5075986;28;20466;-45
2021/06/22 06:58:18;;;;;;;13.47;5.00;;;;;;;21.04;49.35;101050.56;5063664;28;20488;-45
2021/06/22 07:00:47;;;;;;;12.77;4.80;;;;;;;21.56;50.37;101054.16;5075867;28;20476;-44
2021/06/22 07:03:15;;;;;;;20.87;6.57;;;;;;;22.05;49.52;101055.06;5074872;28;20539;-46
2021/06/22 07:05:43;;;;;;;11.37;4.70;;;;;;;21.62;49.22;101064.66;5075594;28;20496;-45
2021/06/22 07:08:10;;;;;;;12.33;4.10;;;;;;;21.79;47.11;101072.56;5073471;28;20473;-44
2021/06/22 07:10:38;;;;;;;9.60;3.97;;;;;;;21.73;46.38;101066.47;5076019;28;20487;-45
2021/06/22 07:13:13;;;;;;;12.10;3.93;;;;;;;22.17;46.76;101068.19;5064902;28;20502;-47
2021/06/22 07:15:40;;;;;;;14.23;4.80;;;;;;;21.84;47.54;101065.56;5075474;28;20464;-45
2021/06/22 07:18:10;;;;;;;9.17;3.77;;;;;;;22.02;47.03;101060.28;5060058;28;20493;-44
2021/06/22 07:20:41;;;;;;;17.10;4.00;;;;;;;22.06;44.39;101054.19;5075589;28;20482;-45
2021/06/22 07:23:08;;;;;;;16.63;4.03;;;;;;;22.20;42.83;101055.00;5072883;28;20485;-45
2021/06/22 07:25:36;;;;;;;12.50;3.80;;;;;;;22.47;46.59;101053.22;5075278;28;20454;-46
2021/06/22 07:28:04;;;;;;;12.93;4.20;;;;;;;22.29;43.23;101050.63;5057352;28;20478;-45
2021/06/22 07:30:32;;;;;;;9.03;3.90;;;;;;;22.54;42.05;101061.13;5075145;28;20486;-45
2021/06/22 07:33:00;;;;;;;24.73;8.80;;;;;;;21.93;46.25;101069.94;5062961;28;20501;-48
2021/06/22 07:35:32;;;;;;;9.87;3.40;;;;;;;21.80;44.10;101078.72;5074850;28;20507;-47
2021/06/22 07:38:00;;;;;;;23.67;9.93;;;;;;;22.26;43.75;101078.66;5064879;28;20490;-45
2021/06/22 07:40:28;;;;;;;19.90;10.53;;;;;;;22.37;45.91;101077.78;5075260;28;20470;-49
2021/06/22 07:42:55;;;;;;;34.37;12.90;;;;;;;21.97;43.22;101066.44;5057587;28;20489;-44
2021/06/22 07:45:24;;;;;;;44.57;15.30;;;;;;;22.10;45.60;101083.06;5074817;28;20767;-46
2021/06/22 07:47:53;;;;;;;18.37;4.27;;;;;;;21.79;43.01;101071.72;5061699;28;20882;-45
2021/06/22 07:50:21;;;;;;;13.60;4.10;;;;;;;21.75;43.50;101075.19;5075240;28;20474;-47
2021/06/22 07:52:50;;;;;;;70.20;32.47;;;;;;;22.40;44.64;101075.13;5074463;28;20485;-46
2021/06/22 07:55:18;;;;;;;13.13;5.70;;;;;;;22.04;44.73;101084.84;5075459;28;20450;-45
2021/06/22 07:57:47;;;;;;;15.90;4.47;;;;;;;22.32;43.36;101077.78;5063117;28;20513;-46
2021/06/22 08:00:31;;;;;;;11.50;4.33;;;;;;;22.41;42.75;101071.63;5074873;28;20478;-48
2021/06/22 08:02:59;;;;;;;15.77;5.50;;;;;;;22.46;42.39;101077.72;5063209;28;20499;-46
2021/06/22 08:05:26;;;;;;;34.03;17.33;;;;;;;22.59;42.30;101080.34;5074784;28;21267;-47
2021/06/22 08:07:56;;;;;;;54.97;28.47;;;;;;;22.72;45.76;101081.19;5061587;28;20489;-45
2021/06/22 08:10:23;;;;;;;9.50;3.60;;;;;;;22.09;42.43;101093.56;5074833;28;20681;-48
2021/06/22 08:12:51;;;;;;;16.77;8.40;;;;;;;22.75;44.21;101084.69;5072547;28;20482;-48
2021/06/22 08:15:19;;;;;;;23.90;11.00;;;;;;;22.83;41.94;101089.94;5075168;28;20459;-49
2021/06/22 08:17:47;;;;;;;25.23;11.77;;;;;;;22.49;45.87;101092.63;5073218;28;20572;-47
2021/06/22 08:20:15;;;;;;;14.13;3.77;;;;;;;22.86;41.61;101091.69;5075399;28;20479;-46
2021/06/22 08:22:43;;;;;;;10.73;4.30;;;;;;;22.20;41.82;101078.66;5058931;28;20951;-47
2021/06/22 08:25:12;;;;;;;22.53;8.93;;;;;;;22.39;42.50;101084.78;5074593;28;20746;-47
2021/06/22 08:27:40;;;;;;;13.70;4.03;;;;;;;22.43;42.45;101090.00;5062790;28;20478;-44
2021/06/22 08:30:09;;;;;;;28.37;9.20;;;;;;;22.70;43.11;101088.22;5074564;28;20506;-48
2021/06/22 08:32:36;;;;;;;19.00;9.87;;;;;;;22.51;41.83;101091.78;5063443;28;20487;-46
2021/06/22 08:35:05;;;;;;;21.00;6.03;;;;;;;22.04;46.82;101092.72;5077597;28;20466;-46
2021/06/22 08:37:32;;;;;;;16.97;4.97;;;;;;;22.06;43.09;101096.22;5067309;28;20957;-45
2021/06/22 08:40:00;;;;;;;11.80;4.37;;;;;;;22.63;42.46;101090.00;5078529;28;20478;-46
2021/06/22 08:42:30;;;;;;;12.67;4.67;;;;;;;22.81;42.21;101094.31;5075392;28;20482;-45
2021/06/22 08:44:58;;;;;;;11.40;4.20;;;;;;;22.44;44.65;101094.38;5078562;28;20464;-45
2021/06/22 08:47:26;;;;;;;13.60;4.63;;;;;;;22.42;43.55;101091.78;5077192;28;20493;-45
2021/06/22 08:49:56;;;;;;;11.00;4.47;;;;;;;22.38;43.41;101097.91;5078436;28;20482;-47
2021/06/22 08:52:26;;;;;;;22.60;10.27;;;;;;;23.32;40.97;101104.63;5073594;28;20478;-45
2021/06/22 08:54:55;;;;;;;10.37;4.53;;;;;;;23.83;39.58;101092.84;5078601;28;20459;-46
2021/06/22 08:57:23;;;;;;;13.17;3.40;;;;;;;23.26;38.67;101094.09;5077054;28;20484;-49
2021/06/22 08:59:52;;;;;;;20.33;9.90;;;;;;;22.73;43.00;101094.34;5078143;28;20478;-45
2021/06/22 09:02:25;;;;;;;17.13;7.87;;;;;;;22.59;40.18;101083.88;5072532;28;20902;-48
2021/06/22 09:04:52;;;;;;;9.27;3.60;;;;;;;22.66;40.54;101089.97;5078626;28;20553;-45
2021/06/22 09:07:42;;;;;;;424.70;236.83;;;;;;;23.16;40.29;101084.50;5067662;28;20474;-47
2021/06/22 09:10:12;;;;;;;7.33;4.00;;;;;;;23.13;40.15;101092.41;5078201;28;20478;-46
2021/06/22 09:12:40;;;;;;;49.03;24.13;;;;;;;23.66;39.00;101093.00;5076651;28;20479;-46
2021/06/22 09:15:18;;;;;;;57.90;27.83;;;;;;;23.52;41.63;101095.72;5078115;28;20462;-44
2021/06/22 09:17:47;;;;;;;14.97;6.17;;;;;;;22.72;40.30;101097.84;5061786;28;20485;-44
2021/06/22 09:20:15;;;;;;;12.13;5.10;;;;;;;23.04;38.93;101094.22;5077808;28;20483;-44
2021/06/22 09:22:42;;;;;;;40.60;17.07;;;;;;;23.24;39.31;101103.75;5066464;28;20485;-45
2021/06/22 09:25:12;;;;;;;49.80;26.60;;;;;;;23.65;40.66;101101.78;5077690;28;20460;-45
2021/06/22 09:27:50;;;;;;;120.07;62.03;;;;;;;23.85;39.11;101098.13;5065626;28;20495;-46
2021/06/22 09:30:40;;;;;;;11.70;4.20;;;;;;;23.91;37.90;101090.16;5077658;28;20825;-46
2021/06/22 09:33:19;;;;;;;8.87;3.00;;;;;;;24.03;37.45;101093.56;5068318;28;20937;-46
2021/06/22 09:35:47;;;;;;;30.03;11.23;;;;;;;23.69;39.71;101084.19;5077493;28;20464;-46
2021/06/22 09:38:15;;;;;;;7.27;3.20;;;;;;;23.60;38.06;101096.53;5064738;28;20494;-46
2021/06/22 09:40:43;;;;;;;10.50;3.60;;;;;;;23.36;37.05;101094.06;5077753;28;20565;-47
2021/06/22 09:43:11;;;;;;;24.67;10.17;;;;;;;23.33;40.33;101095.84;5067601;28;20528;-45
2021/06/22 09:45:44;;;;;;;16.00;8.63;;;;;;;23.18;38.81;101101.16;5077269;28;20462;-45
2021/06/22 09:48:12;;;;;;;12.70;5.80;;;;;;;23.14;41.00;101099.41;5066577;28;20493;-46
2021/06/22 09:50:41;;;;;;;14.87;5.97;;;;;;;23.67;38.46;101101.75;5077307;28;20480;-46
2021/06/22 09:53:25;;;;;;;24.20;11.73;;;;;;;23.91;38.83;101103.31;5066324;28;20798;-46
2021/06/22 09:55:53;;;;;;;16.47;5.20;;;;;;;23.94;38.16;101110.34;5077007;28;20470;-48
2021/06/22 09:58:39;;;;;;;8.80;3.80;;;;;;;23.99;37.91;101116.41;5067274;28;20815;-49
2021/06/22 10:01:24;;;;;;;22.13;7.97;;;;;;;23.61;37.65;101110.56;5077685;28;20448;-46
2021/06/22 10:03:52;;;;;;;12.70;4.10;;;;;;;23.00;38.35;101103.00;5069732;28;20911;-44
2021/06/22 10:06:39;;;;;;;10.43;4.43;;;;;;;22.77;39.60;101117.09;5066129;28;20769;-45
2021/06/22 10:09:07;;;;;;;10.33;3.47;;;;;;;23.31;38.04;101112.50;5076014;28;20493;-43
2021/06/22 10:11:37;;;;;;;11.60;4.13;;;;;;;23.64;38.55;101107.91;5071065;28;20910;-45
2021/06/22 10:14:06;;;;;;;9.67;3.20;;;;;;;23.64;38.63;101105.28;5077051;28;20525;-44
2021/06/22 10:16:39;;;;;;;13.07;5.57;;;;;;;24.36;36.88;101105.56;5069264;28;20458;-45
2021/06/22 10:19:07;;;;;;;11.70;3.77;;;;;;;23.83;37.99;101105.13;5076326;28;20483;-45
2021/06/22 10:21:37;;;;;;;13.03;4.23;;;;;;;24.17;36.58;101106.63;5073307;28;20549;-44
2021/06/22 10:24:05;;;;;;;61.07;29.40;;;;;;;24.33;37.82;101105.59;5076568;28;20482;-46
2021/06/22 10:26:36;;;;;;;40.20;20.00;;;;;;;23.99;39.19;101121.69;5071852;28;21011;-45
2021/06/22 10:29:04;;;;;;;22.47;8.27;;;;;;;23.67;38.99;101109.66;5076518;28;20786;-48
2021/06/22 10:31:41;;;;;;;11.67;3.50;;;;;;;23.69;38.22;101108.75;5076765;28;20469;-45
2021/06/22 10:34:10;;;;;;;12.00;4.90;;;;;;;23.41;39.32;101124.75;5076027;28;20921;-45
2021/06/22 10:36:44;;;;;;;16.63;7.10;;;;;;;23.41;40.03;101119.47;5065054;28;20472;-47
2021/06/22 10:39:18;;;;;;;13.43;3.80;;;;;;;23.11;41.16;101125.78;5075658;28;20482;-45
2021/06/22 10:41:46;;;;;;;23.80;9.70;;;;;;;23.25;41.88;101128.31;5071238;28;20924;-44
2021/06/22 10:44:33;;;;;;;11.50;3.27;;;;;;;23.08;40.23;101131.91;5076355;28;20453;-45
2021/06/22 10:47:24;;;;;;;13.60;3.57;;;;;;;23.19;39.89;101126.59;5065746;28;20475;-46
2021/06/22 10:50:14;;;;;;;21.70;6.17;;;;;;;23.41;39.83;101130.00;5076223;28;20525;-45
2021/06/22 10:53:05;;;;;;;11.63;3.60;;;;;;;23.64;39.68;101131.59;5062643;28;20480;-45
2021/06/22 10:55:58;;;;;;;15.77;3.90;;;;;;;24.17;38.43;101130.34;5075946;28;20459;-45
2021/06/22 10:58:26;;;;;;;16.63;6.13;;;;;;;23.64;40.54;101130.75;5054911;28;20566;-45
2021/06/22 11:01:16;;;;;;;13.50;5.17;;;;;;;24.06;38.59;101133.94;5076036;28;20486;-45
2021/06/22 11:03:44;;;;;;;15.03;4.23;;;;;;;24.44;37.28;101128.38;5058811;28;20481;-44
2021/06/22 11:06:24;;;;;;;13.60;4.30;;;;;;;24.90;35.91;101133.13;5075581;28;20526;-46
2021/06/22 11:08:52;;;;;;;13.33;3.50;;;;;;;24.40;35.55;101125.75;5074653;28;20483;-45
2021/06/22 11:11:21;;;;;;;11.50;3.10;;;;;;;24.03;36.71;101127.84;5076033;28;20460;-43
2021/06/22 11:13:53;;;;;;;13.23;4.10;;;;;;;23.67;38.14;101122.81;5063224;28;20482;-46
2021/06/22 11:16:40;;;;;;;11.77;4.33;;;;;;;23.87;39.01;101130.56;5075530;28;20965;-47
2021/06/22 11:19:09;;;;;;;14.63;3.00;;;;;;;24.39;37.51;101120.47;5075382;28;20455;-45
2021/06/22 11:21:53;;;;;;;17.67;5.60;;;;;;;24.50;39.09;101128.28;5065500;28;20465;-46
2021/06/22 11:24:31;;;;;;;10.00;3.03;;;;;;;25.13;35.61;101118.78;5074805;28;20493;-48
2021/06/22 11:27:11;;;;;;;12.00;3.60;;;;;;;25.08;34.67;101115.34;5060293;28;20559;-46
2021/06/22 11:29:59;;;;;;;10.07;2.37;;;;;;;25.07;33.73;101118.88;5074968;28;20488;-46